createdAt,value
2018-06-13T00:09:37.041Z,12.90
2018-06-13T00:12:41.412Z,12.80
2018-06-13T00:15:45.829Z,12.80
2018-06-13T00:18:50.185Z,12.80
2018-06-13T00:21:54.558Z,12.80
2018-06-13T00:24:58.929Z,12.80
2018-06-13T00:28:03.297Z,12.80
2018-06-13T00:31:07.677Z,12.80
2018-06-13T00:34:12.050Z,12.80
2018-06-13T00:37:16.404Z,12.90
2018-06-13T00:40:20.778Z,12.90
2018-06-13T00:43:25.149Z,12.80
2018-06-13T00:46:30.368Z,12.90
2018-06-13T00:49:34.709Z,12.90
2018-06-13T00:52:39.083Z,12.80
2018-06-13T00:56:00.573Z,12.90
2018-06-13T00:59:04.961Z,12.80
2018-06-13T01:02:09.368Z,12.90
2018-06-13T01:05:13.725Z,12.90
2018-06-13T01:08:18.081Z,12.90
2018-06-13T01:11:22.445Z,12.90
2018-06-13T01:14:26.828Z,12.90
2018-06-13T01:17:31.212Z,12.90
2018-06-13T01:20:35.593Z,12.90
2018-06-13T01:23:39.964Z,13.00
2018-06-13T01:26:44.315Z,12.90
2018-06-13T01:29:48.682Z,12.90
2018-06-13T01:32:53.045Z,12.80
2018-06-13T01:35:57.433Z,12.80
2018-06-13T01:39:01.801Z,12.90
2018-06-13T01:45:10.298Z,12.80
2018-06-13T01:48:14.661Z,12.80
2018-06-13T01:51:19.037Z,12.80
2018-06-13T01:54:23.417Z,12.70
2018-06-13T01:57:27.789Z,12.70
2018-06-13T02:00:32.157Z,12.80
2018-06-13T02:03:36.517Z,12.80
2018-06-13T02:06:40.892Z,12.80
2018-06-13T02:09:45.253Z,12.80
2018-06-13T02:12:49.612Z,12.80
2018-06-13T02:15:54.064Z,12.80
2018-06-13T02:18:58.429Z,12.80
2018-06-13T02:22:02.829Z,12.80
2018-06-13T02:25:07.225Z,12.80
2018-06-13T02:28:11.608Z,12.90
2018-06-13T02:31:15.985Z,12.80
2018-06-13T02:34:20.366Z,12.80
2018-06-13T02:37:24.749Z,12.90
2018-06-13T02:40:29.088Z,12.90
2018-06-13T02:43:33.449Z,12.80
2018-06-13T02:46:37.805Z,12.80
2018-06-13T02:49:42.173Z,12.80
2018-06-13T02:52:46.538Z,12.80
2018-06-13T02:55:50.918Z,12.80
2018-06-13T02:58:55.281Z,12.80
2018-06-13T03:01:59.688Z,12.80
2018-06-13T03:05:04.109Z,12.90
2018-06-13T03:08:08.475Z,12.80
2018-06-13T03:11:12.849Z,12.80
2018-06-13T03:14:17.218Z,12.80
2018-06-13T03:17:21.604Z,12.90
2018-06-13T03:20:25.960Z,12.90
2018-06-13T03:23:30.353Z,12.90
2018-06-13T03:26:34.729Z,12.90
2018-06-13T03:29:39.083Z,12.90
2018-06-13T03:32:43.454Z,13.00
2018-06-13T03:35:47.824Z,12.90
2018-06-13T03:38:52.196Z,13.00
2018-06-13T03:41:56.917Z,13.00
2018-06-13T03:45:01.281Z,13.00
2018-06-13T03:48:05.909Z,13.00
2018-06-13T03:51:10.300Z,13.00
2018-06-13T03:54:14.669Z,13.00
2018-06-13T03:57:19.081Z,13.00
2018-06-13T04:00:23.437Z,13.00
2018-06-13T04:03:27.833Z,13.00
2018-06-13T04:06:32.234Z,13.00
2018-06-13T04:09:36.621Z,13.10
2018-06-13T04:12:41.090Z,13.10
2018-06-13T04:15:45.452Z,13.10
2018-06-13T04:18:49.878Z,13.20
2018-06-13T04:21:54.246Z,13.20
2018-06-13T04:24:58.638Z,13.30
2018-06-13T04:28:03.016Z,13.30
2018-06-13T04:31:07.401Z,13.20
2018-06-13T04:34:11.793Z,13.20
2018-06-13T04:37:16.169Z,13.20
2018-06-13T04:40:20.527Z,13.20
2018-06-13T04:43:24.889Z,13.30
2018-06-13T04:46:29.302Z,13.30
2018-06-13T04:49:33.677Z,13.40
2018-06-13T04:52:38.081Z,13.40
2018-06-13T04:55:42.445Z,13.50
2018-06-13T04:58:46.828Z,13.50
2018-06-13T05:01:51.204Z,13.50
2018-06-13T05:04:55.624Z,13.50
2018-06-13T05:07:59.993Z,13.60
2018-06-13T05:11:04.369Z,13.60
2018-06-13T05:14:08.728Z,13.60
2018-06-13T05:17:13.131Z,13.70
2018-06-13T05:20:17.497Z,13.80
2018-06-13T05:23:21.840Z,13.80
2018-06-13T05:26:26.213Z,13.80
2018-06-13T05:29:30.581Z,13.80
2018-06-13T05:32:34.943Z,13.80
2018-06-13T05:35:39.305Z,13.90
2018-06-13T05:38:43.665Z,14.00
2018-06-13T05:41:48.087Z,14.20
2018-06-13T05:44:52.453Z,14.30
2018-06-13T05:47:56.837Z,14.30
2018-06-13T05:51:01.200Z,14.20
2018-06-13T05:54:05.597Z,14.30
2018-06-13T05:57:09.969Z,14.20
2018-06-13T06:00:14.378Z,14.30
2018-06-13T06:03:18.740Z,14.30
2018-06-13T06:06:23.150Z,14.40
2018-06-13T06:09:27.520Z,14.40
2018-06-13T06:12:31.877Z,14.50
2018-06-13T06:15:36.241Z,14.50
2018-06-13T06:18:40.601Z,14.60
2018-06-13T06:21:44.978Z,14.70
2018-06-13T06:24:49.325Z,14.90
2018-06-13T06:27:53.705Z,14.90
2018-06-13T06:30:58.108Z,15.00
2018-06-13T06:34:02.481Z,14.90
2018-06-13T06:37:06.820Z,14.90
2018-06-13T06:40:11.217Z,14.70
2018-06-13T06:43:15.576Z,14.60
2018-06-13T06:46:19.942Z,14.60
2018-06-13T06:49:24.309Z,14.60
2018-06-13T06:52:28.677Z,14.60
2018-06-13T06:55:33.050Z,14.60
2018-06-13T06:58:37.443Z,14.60
2018-06-13T07:01:41.805Z,14.70
2018-06-13T07:04:46.194Z,14.70
2018-06-13T07:07:50.563Z,14.80
2018-06-13T07:10:54.940Z,14.80
2018-06-13T07:13:59.296Z,14.90
2018-06-13T07:17:03.802Z,15.00
2018-06-13T07:20:08.181Z,15.20
2018-06-13T07:23:12.565Z,15.20
2018-06-13T07:26:16.912Z,15.40
2018-06-13T07:29:21.287Z,15.40
2018-06-13T07:32:25.654Z,15.40
2018-06-13T07:35:30.048Z,15.60
2018-06-13T07:38:34.433Z,15.80
2018-06-13T07:41:38.985Z,15.80
2018-06-13T07:44:43.364Z,15.70
2018-06-13T07:47:47.738Z,15.50
2018-06-13T07:50:52.109Z,15.70
2018-06-13T07:53:56.477Z,16.00
2018-06-13T07:57:00.880Z,16.20
2018-06-13T08:00:05.788Z,16.30
2018-06-13T08:03:10.177Z,16.40
2018-06-13T08:06:14.544Z,16.60
2018-06-13T08:09:18.919Z,16.70
2018-06-13T08:12:23.277Z,16.80
2018-06-13T08:15:27.660Z,16.90
2018-06-13T08:18:32.034Z,17.00
2018-06-13T08:21:36.417Z,17.00
2018-06-13T08:24:54.118Z,17.20
2018-06-13T08:27:58.493Z,17.40
2018-06-13T08:31:04.051Z,17.60
2018-06-13T08:34:09.714Z,17.80
2018-06-13T08:37:15.025Z,17.80
2018-06-13T08:40:20.025Z,17.50
2018-06-13T08:43:24.685Z,17.20
2018-06-13T08:46:29.940Z,17.10
2018-06-13T08:49:34.850Z,16.80
2018-06-13T08:52:39.809Z,16.80
2018-06-13T08:55:44.374Z,16.70
2018-06-13T08:58:49.639Z,16.60
2018-06-13T09:01:54.205Z,16.90
2018-06-13T09:04:58.644Z,17.00
2018-06-13T09:08:03.112Z,16.90
2018-06-13T09:11:07.621Z,16.90
2018-06-13T09:14:12.138Z,17.10
2018-06-13T09:17:16.588Z,17.30
2018-06-13T09:20:21.034Z,17.30
2018-06-13T09:23:25.727Z,17.30
2018-06-13T09:26:30.133Z,17.30
2018-06-13T09:29:34.500Z,17.20
2018-06-13T09:32:38.900Z,17.20
2018-06-13T09:35:43.261Z,17.00
2018-06-13T09:38:47.662Z,17.20
2018-06-13T09:41:57.380Z,17.50
2018-06-13T09:45:01.778Z,17.50
2018-06-13T09:48:06.175Z,17.50
2018-06-13T09:51:10.577Z,17.40
2018-06-13T09:54:15.116Z,17.30
2018-06-13T09:57:19.476Z,17.20
2018-06-13T10:00:29.197Z,17.10
2018-06-13T10:03:33.622Z,16.90
2018-06-13T10:06:38.017Z,16.80
2018-06-13T10:09:42.477Z,16.80
2018-06-13T10:12:46.880Z,16.90
2018-06-13T10:15:51.253Z,16.90
2018-06-13T10:18:55.627Z,16.90
2018-06-13T10:22:00.054Z,16.80
2018-06-13T10:25:04.466Z,16.70
2018-06-13T10:28:08.920Z,16.60
2018-06-13T10:31:13.281Z,16.60
2018-06-13T10:34:17.691Z,16.40
2018-06-13T10:37:22.075Z,16.40
2018-06-13T10:40:26.487Z,16.40
2018-06-13T10:43:30.900Z,16.50
2018-06-13T10:46:35.285Z,16.60
2018-06-13T10:49:39.766Z,16.60
2018-06-13T10:52:44.112Z,16.60
2018-06-13T10:55:48.502Z,16.70
2018-06-13T10:58:52.863Z,16.70
2018-06-13T11:01:57.317Z,16.70
2018-06-13T11:05:01.698Z,16.80
2018-06-13T11:08:06.144Z,16.70
2018-06-13T11:11:10.526Z,16.70
2018-06-13T11:14:14.974Z,16.70
2018-06-13T11:17:19.348Z,16.80
2018-06-13T11:23:27.991Z,16.70
2018-06-13T11:26:32.417Z,16.70
2018-06-13T11:29:36.804Z,16.70
2018-06-13T11:32:41.328Z,16.70
2018-06-13T11:35:45.769Z,16.70
2018-06-13T11:38:50.164Z,16.70
2018-06-13T11:41:54.569Z,16.60
2018-06-13T11:44:58.985Z,16.60
2018-06-13T11:48:03.410Z,16.60
2018-06-13T11:51:07.825Z,16.60
2018-06-13T11:54:12.196Z,16.70
2018-06-13T11:57:16.672Z,16.90
2018-06-13T12:00:21.068Z,17.00
2018-06-13T12:03:25.449Z,17.10
2018-06-13T12:06:29.837Z,17.20
2018-06-13T12:09:34.241Z,17.20
2018-06-13T12:12:38.605Z,17.60
2018-06-13T12:15:43.057Z,18.00
2018-06-13T12:18:47.516Z,18.20
2018-06-13T12:21:51.933Z,18.20
2018-06-13T12:24:56.409Z,18.20
2018-06-13T12:28:00.829Z,18.00
2018-06-13T12:31:05.310Z,17.90
2018-06-13T12:34:09.754Z,17.70
2018-06-13T12:37:14.164Z,17.60
2018-06-13T12:40:18.564Z,17.50
2018-06-13T12:43:23.061Z,17.40
2018-06-13T12:46:27.441Z,17.30
2018-06-13T12:49:31.819Z,17.20
2018-06-13T12:52:36.299Z,17.20
2018-06-13T12:55:40.875Z,17.30
2018-06-13T12:58:45.400Z,17.30
2018-06-13T13:01:49.838Z,17.20
2018-06-13T13:04:54.222Z,17.30
2018-06-13T13:07:58.722Z,17.20
2018-06-13T13:11:03.157Z,17.20
2018-06-13T13:14:07.581Z,17.10
2018-06-13T13:17:11.970Z,17.00
2018-06-13T13:20:16.400Z,16.90
2018-06-13T13:23:20.798Z,16.80
2018-06-13T13:26:25.193Z,16.80
2018-06-13T13:29:29.582Z,16.80
2018-06-13T13:32:33.986Z,16.90
2018-06-13T13:35:38.375Z,16.80
2018-06-13T13:38:42.761Z,16.90
2018-06-13T13:41:47.140Z,16.90
2018-06-13T13:44:51.536Z,17.00
2018-06-13T13:47:56.872Z,16.90
2018-06-13T13:51:01.269Z,17.20
2018-06-13T13:54:05.687Z,17.40
2018-06-13T13:57:10.108Z,17.70
2018-06-13T14:00:14.536Z,17.70
2018-06-13T14:03:18.907Z,17.50
2018-06-13T14:06:23.389Z,17.60
2018-06-13T14:09:27.787Z,17.60
2018-06-13T14:12:32.169Z,17.60
2018-06-13T14:15:36.521Z,17.60
2018-06-13T14:18:40.890Z,17.60
2018-06-13T14:21:45.285Z,17.50
2018-06-13T14:24:49.653Z,17.40
2018-06-13T14:27:54.309Z,17.30
2018-06-13T14:30:59.050Z,17.20
2018-06-13T14:34:03.448Z,17.00
2018-06-13T14:37:08.148Z,17.00
2018-06-13T14:40:12.570Z,17.00
2018-06-13T14:43:16.958Z,16.90
2018-06-13T14:46:21.341Z,16.90
2018-06-13T14:49:25.707Z,16.90
2018-06-13T14:52:30.118Z,16.90
2018-06-13T14:55:39.715Z,16.80
2018-06-13T14:58:44.146Z,16.80
2018-06-13T15:01:48.554Z,16.80
2018-06-13T15:04:52.955Z,16.70
2018-06-13T15:07:57.430Z,16.80
2018-06-13T15:11:01.762Z,16.80
2018-06-13T15:14:06.489Z,16.80
2018-06-13T15:17:10.858Z,16.70
2018-06-13T15:20:15.280Z,16.70
2018-06-13T15:23:19.729Z,16.80
2018-06-13T15:26:24.218Z,16.90
2018-06-13T15:29:28.593Z,16.90
2018-06-13T15:32:32.985Z,16.90
2018-06-13T15:35:37.421Z,16.90
2018-06-13T15:38:41.814Z,16.80
2018-06-13T15:41:46.259Z,16.70
2018-06-13T15:44:50.674Z,16.60
2018-06-13T15:47:55.044Z,16.90
2018-06-13T15:50:59.401Z,17.40
2018-06-13T15:57:08.085Z,17.90
2018-06-13T16:00:12.459Z,18.10
2018-06-13T16:03:16.843Z,18.00
2018-06-13T16:06:21.289Z,18.00
2018-06-13T16:09:25.718Z,18.00
2018-06-13T16:12:30.101Z,18.20
2018-06-13T16:15:34.490Z,18.20
2018-06-13T16:18:38.932Z,18.30
2018-06-13T16:21:43.342Z,18.20
2018-06-13T16:24:47.728Z,18.00
2018-06-13T16:27:52.126Z,17.60
2018-06-13T16:30:56.514Z,17.50
2018-06-13T16:34:00.897Z,17.10
2018-06-13T16:37:05.317Z,17.20
2018-06-13T16:43:13.817Z,17.20
2018-06-13T16:46:18.190Z,17.10
2018-06-13T16:49:22.605Z,16.80
2018-06-13T16:52:44.006Z,16.70
2018-06-13T16:55:48.386Z,16.50
2018-06-13T16:58:52.903Z,16.40
2018-06-13T17:01:57.293Z,16.30
2018-06-13T17:05:01.661Z,16.30
2018-06-13T17:08:06.038Z,16.40
2018-06-13T17:11:10.432Z,16.30
2018-06-13T17:14:14.781Z,16.30
2018-06-13T17:17:19.174Z,16.30
2018-06-13T17:20:23.534Z,16.20
2018-06-13T17:23:27.960Z,16.20
2018-06-13T17:26:32.354Z,16.10
2018-06-13T17:29:36.842Z,16.00
2018-06-13T17:32:41.250Z,16.00
2018-06-13T17:35:45.642Z,15.90
2018-06-13T17:38:50.047Z,15.80
2018-06-13T17:41:54.419Z,15.70
2018-06-13T17:44:58.816Z,15.60
2018-06-13T17:48:03.196Z,15.60
2018-06-13T17:51:07.600Z,15.50
2018-06-13T17:54:11.960Z,15.60
2018-06-13T17:57:16.361Z,15.50
2018-06-13T18:00:20.745Z,15.50
2018-06-13T18:03:25.129Z,15.50
2018-06-13T18:06:29.530Z,15.50
2018-06-13T18:09:33.929Z,15.50
2018-06-13T18:12:38.318Z,15.50
2018-06-13T18:15:42.766Z,15.40
2018-06-13T18:18:47.131Z,15.50
2018-06-13T18:21:51.565Z,15.40
2018-06-13T18:24:55.994Z,15.40
2018-06-13T18:28:00.353Z,15.30
2018-06-13T18:31:04.716Z,15.30
2018-06-13T18:34:09.127Z,15.20
2018-06-13T18:37:13.489Z,15.10
2018-06-13T18:40:17.893Z,15.10
2018-06-13T18:43:22.265Z,15.00
2018-06-13T18:46:26.638Z,14.90
2018-06-13T18:49:31.032Z,14.80
2018-06-13T18:52:35.442Z,14.80
2018-06-13T18:55:39.861Z,14.80
2018-06-13T18:58:44.277Z,14.70
2018-06-13T19:01:48.665Z,14.70
2018-06-13T19:04:53.037Z,14.70
2018-06-13T19:07:57.412Z,14.60
2018-06-13T19:11:01.826Z,14.60
2018-06-13T19:14:07.063Z,14.60
2018-06-13T19:17:11.474Z,14.60
2018-06-13T19:20:15.853Z,14.50
2018-06-13T19:23:20.260Z,14.50
2018-06-13T19:26:24.632Z,14.50
2018-06-13T19:29:29.008Z,14.40
2018-06-13T19:32:33.388Z,14.40
2018-06-13T19:35:37.780Z,14.50
2018-06-13T19:38:42.169Z,14.50
2018-06-13T19:41:46.554Z,14.40
2018-06-13T19:44:51.021Z,14.40
2018-06-13T19:48:00.643Z,14.40
2018-06-13T19:51:05.047Z,14.40
2018-06-13T19:54:14.581Z,14.40
2018-06-13T19:57:18.972Z,14.30
2018-06-13T20:00:23.377Z,14.30
2018-06-13T20:03:32.838Z,14.30
2018-06-13T20:06:39.189Z,14.20
2018-06-13T20:09:43.561Z,14.20
2018-06-13T20:13:54.150Z,14.20
2018-06-13T20:17:03.781Z,14.20
2018-06-13T20:20:08.160Z,14.10
2018-06-13T20:23:12.566Z,14.10
2018-06-13T20:26:22.157Z,14.00
2018-06-13T20:29:31.705Z,14.00
2018-06-13T20:32:36.097Z,13.90
2018-06-13T20:35:40.487Z,13.90
2018-06-13T20:38:44.853Z,13.80
2018-06-13T20:41:49.230Z,13.70
2018-06-13T20:44:53.619Z,13.70
2018-06-13T20:47:58.006Z,13.50
2018-06-13T20:51:02.396Z,13.50
2018-06-13T20:54:06.860Z,13.40
2018-06-13T20:57:11.234Z,13.30
2018-06-13T21:00:15.716Z,13.20
2018-06-13T21:03:20.102Z,13.10
2018-06-13T21:06:24.530Z,13.00
2018-06-13T21:09:28.902Z,12.80
2018-06-13T21:12:33.304Z,12.70
2018-06-13T21:15:37.850Z,12.70
2018-06-13T21:18:42.274Z,12.60
2018-06-13T21:21:46.676Z,12.50
2018-06-13T21:24:51.079Z,12.50
2018-06-13T21:27:55.477Z,12.40
2018-06-13T21:30:59.885Z,12.40
2018-06-13T21:34:04.314Z,12.30
2018-06-13T21:37:08.706Z,12.20
2018-06-13T21:40:13.114Z,12.20
2018-06-13T21:43:17.486Z,12.10
2018-06-13T21:46:21.881Z,12.00
2018-06-13T21:49:26.275Z,11.90
2018-06-13T21:55:35.896Z,11.80
2018-06-13T21:58:40.289Z,11.60
2018-06-13T22:01:44.720Z,11.60
2018-06-13T22:04:49.123Z,11.40
2018-06-13T22:07:53.497Z,11.40
2018-06-13T22:10:57.920Z,11.40
2018-06-13T22:14:02.314Z,11.40
2018-06-13T22:17:06.758Z,11.40
2018-06-13T22:20:11.157Z,11.30
2018-06-13T22:23:15.585Z,11.40
2018-06-13T22:26:19.973Z,11.40
2018-06-13T22:29:24.359Z,11.40
2018-06-13T22:32:28.766Z,11.40
2018-06-13T22:35:33.177Z,11.40
2018-06-13T22:38:37.574Z,11.40
2018-06-13T22:41:42.433Z,11.40
2018-06-13T22:44:46.846Z,11.40
2018-06-13T22:47:51.267Z,11.40
2018-06-13T22:50:55.664Z,11.50
2018-06-13T22:54:00.077Z,11.50
2018-06-13T22:57:04.480Z,11.60
2018-06-13T23:03:13.117Z,11.70
2018-06-13T23:06:17.544Z,11.60
2018-06-13T23:09:21.961Z,11.60
2018-06-13T23:12:26.345Z,11.70
2018-06-13T23:15:30.746Z,11.60
2018-06-13T23:18:35.138Z,11.60
2018-06-13T23:21:39.569Z,11.60
2018-06-13T23:24:43.948Z,11.70
2018-06-13T23:27:48.336Z,11.70
2018-06-13T23:30:52.889Z,11.70
2018-06-13T23:33:57.244Z,11.80
2018-06-13T23:37:01.695Z,11.80
2018-06-13T23:40:06.154Z,11.80
2018-06-13T23:43:10.565Z,11.70
2018-06-13T23:46:14.998Z,11.70
2018-06-13T23:49:19.379Z,11.70
2018-06-13T23:52:23.793Z,11.80
2018-06-13T23:55:28.200Z,11.80
2018-06-13T23:58:32.613Z,11.80
